Time;durP1;ratioP1;P1;durP2;ratioP2;P2;SDS_P1;SDS_P2;PMS_P1;PMS_P2;Temp;Humidity;BMP_temperature;BMP_pressure;BME280_temperature;BME280_humidity;BME280_pressure;Samples;Min_cycle;Max_cycle;Signal;HPM_P1;HPM_P2
2021/11/09 00:01:10;;;;;;;17.13;10.23;;;3.80;99.90;;;;;;5032523;28;20481;-50
2021/11/09 00:03:44;;;;;;;16.23;10.00;;;3.80;99.90;;;;;;5032490;28;20471;-50
2021/11/09 00:06:16;;;;;;;18.87;10.13;;;3.70;99.90;;;;;;5032361;28;20455;-49
2021/11/09 00:08:48;;;;;;;14.07;8.43;;;3.60;99.90;;;;;;5032099;28;20881;-49
2021/11/09 00:11:15;;;;;;;18.90;9.40;;;3.60;99.90;;;;;;5023962;28;20919;-49
2021/11/09 00:13:43;;;;;;;16.37;8.87;;;3.70;99.90;;;;;;5031983;28;20502;-50
2021/11/09 00:16:13;;;;;;;15.57;8.47;;;3.60;99.90;;;;;;5032060;28;20460;-50
2021/11/09 00:18:41;;;;;;;13.87;8.73;;;3.60;99.90;;;;;;5031971;28;20817;-50
2021/11/09 00:21:08;;;;;;;10.70;7.57;;;3.70;99.90;;;;;;5031043;28;20586;-49
2021/11/09 00:23:35;;;;;;;20.17;8.90;;;3.70;99.90;;;;;;5031601;28;20459;-50
2021/11/09 00:26:02;;;;;;;13.60;7.60;;;3.80;99.90;;;;;;5031649;28;20456;-50
2021/11/09 00:28:29;;;;;;;14.67;8.50;;;3.80;99.90;;;;;;5031929;28;20459;-50
2021/11/09 00:30:56;;;;;;;15.87;6.87;;;3.90;99.90;;;;;;5031174;28;20907;-50
2021/11/09 00:33:24;;;;;;;11.73;6.23;;;3.70;99.90;;;;;;5030615;28;20464;-49
2021/11/09 00:35:51;;;;;;;12.80;7.40;;;3.50;99.90;;;;;;5026706;28;20457;-49
2021/11/09 00:38:18;;;;;;;12.67;7.00;;;3.40;99.90;;;;;;5046893;28;20448;-50
2021/11/09 00:40:46;;;;;;;11.77;6.40;;;3.50;99.90;;;;;;5041542;28;20479;-50
2021/11/09 00:43:15;;;;;;;10.70;6.30;;;3.70;99.90;;;;;;5051704;28;20476;-50
2021/11/09 00:45:42;;;;;;;12.67;6.30;;;3.80;99.90;;;;;;5051528;28;20833;-50
2021/11/09 00:48:10;;;;;;;12.00;6.03;;;3.90;99.90;;;;;;5034360;28;20456;-50
2021/11/09 00:50:39;;;;;;;10.50;5.90;;;3.90;99.90;;;;;;5031722;28;20462;-50
2021/11/09 00:53:08;;;;;;;10.00;5.70;;;4.00;99.90;;;;;;5032265;28;20472;-50
2021/11/09 00:55:35;;;;;;;10.60;5.40;;;4.00;99.90;;;;;;5031694;28;20453;-49
2021/11/09 00:58:03;;;;;;;10.80;6.20;;;4.10;99.90;;;;;;5031543;28;20503;-50
2021/11/09 01:00:32;;;;;;;10.53;5.70;;;4.00;99.90;;;;;;5034415;28;20498;-50
2021/11/09 01:03:01;;;;;;;9.37;5.30;;;3.90;99.90;;;;;;5051448;28;20476;-50
2021/11/09 01:05:28;;;;;;;16.67;5.83;;;3.90;99.90;;;;;;5040271;28;20521;-49
2021/11/09 01:08:00;;;;;;;9.03;5.67;;;3.80;99.90;;;;;;5049842;28;20455;-49
2021/11/09 01:10:29;;;;;;;9.27;4.97;;;4.00;99.90;;;;;;5034234;28;20511;-49
2021/11/09 01:12:57;;;;;;;7.17;4.20;;;4.10;99.90;;;;;;5050638;28;20892;-50
2021/11/09 01:15:24;;;;;;;9.43;5.00;;;4.20;99.90;;;;;;5032750;28;20518;-50
2021/11/09 01:17:53;;;;;;;8.87;5.40;;;4.30;99.90;;;;;;5044608;28;20861;-50
2021/11/09 01:20:22;;;;;;;8.00;4.70;;;4.20;99.90;;;;;;5051162;28;20448;-50
2021/11/09 01:22:51;;;;;;;8.33;4.53;;;4.20;99.90;;;;;;5047424;22;20602;-54
2021/11/09 01:25:20;;;;;;;6.80;4.70;;;4.30;99.90;;;;;;5031368;28;20454;-55
2021/11/09 01:27:48;;;;;;;8.97;4.93;;;4.40;99.90;;;;;;5031187;28;20514;-55
2021/11/09 01:30:17;;;;;;;8.40;5.10;;;4.40;99.90;;;;;;5031348;28;20453;-55
2021/11/09 01:32:44;;;;;;;7.07;4.70;;;4.30;99.90;;;;;;5015167;28;20465;-55
2021/11/09 01:35:11;;;;;;;9.73;4.50;;;4.30;99.90;;;;;;5013146;28;20508;-55
2021/11/09 01:37:39;;;;;;;7.80;4.93;;;4.40;99.90;;;;;;5021423;28;20441;-56
2021/11/09 01:40:08;;;;;;;9.80;4.63;;;4.40;99.90;;;;;;5019498;28;20527;-55
2021/11/09 01:42:37;;;;;;;10.03;5.10;;;4.40;99.90;;;;;;5036220;28;20488;-55
2021/11/09 01:45:06;;;;;;;9.27;5.10;;;4.20;99.90;;;;;;5031424;28;20502;-55
2021/11/09 01:47:33;;;;;;;11.83;4.87;;;4.30;99.90;;;;;;5030742;28;20462;-55
2021/11/09 01:50:01;;;;;;;6.30;4.50;;;4.20;99.90;;;;;;5030991;28;20499;-56
2021/11/09 01:52:28;;;;;;;8.93;4.93;;;4.20;99.90;;;;;;5030990;28;20518;-54
2021/11/09 01:54:55;;;;;;;14.27;5.80;;;4.20;99.90;;;;;;5030320;28;20950;-55
2021/11/09 01:57:22;;;;;;;8.20;5.17;;;3.90;99.90;;;;;;5025934;28;20459;-55
2021/11/09 01:59:50;;;;;;;8.23;5.10;;;3.80;99.90;;;;;;5035132;28;20452;-55
2021/11/09 02:02:19;;;;;;;11.27;5.63;;;3.90;99.90;;;;;;5033165;28;20546;-55
2021/11/09 02:04:46;;;;;;;9.97;5.83;;;4.00;99.90;;;;;;5047709;28;20882;-54
2021/11/09 02:07:13;;;;;;;12.63;5.67;;;4.00;99.90;;;;;;5039061;28;20447;-55
2021/11/09 02:09:40;;;;;;;11.20;6.50;;;4.00;99.90;;;;;;5053746;28;20510;-55
2021/11/09 02:12:08;;;;;;;9.97;5.97;;;4.00;99.90;;;;;;5028280;28;20529;-55
2021/11/09 02:14:35;;;;;;;10.47;6.20;;;4.00;99.90;;;;;;5033672;28;21225;-55
2021/11/09 02:17:05;;;;;;;8.80;5.73;;;4.00;99.90;;;;;;5034596;28;20501;-55
2021/11/09 02:19:32;;;;;;;8.50;5.80;;;3.90;99.90;;;;;;5034470;28;20976;-55
2021/11/09 02:22:00;;;;;;;12.30;5.97;;;3.90;99.90;;;;;;5033839;28;20546;-54
2021/11/09 02:24:28;;;;;;;11.80;6.73;;;3.90;99.90;;;;;;5034236;28;20444;-54
2021/11/09 02:26:55;;;;;;;10.47;5.70;;;3.90;99.90;;;;;;5034020;28;20452;-54
2021/11/09 02:29:22;;;;;;;14.43;6.13;;;3.90;99.90;;;;;;5033837;28;20445;-55
2021/11/09 02:31:49;;;;;;;10.30;6.33;;;3.90;99.90;;;;;;5033868;28;20444;-55
2021/11/09 02:34:16;;;;;;;10.23;5.50;;;3.70;99.90;;;;;;5034088;28;20514;-54
2021/11/09 02:36:43;;;;;;;12.20;6.83;;;3.70;99.90;;;;;;5033743;28;20510;-55
2021/11/09 02:39:12;;;;;;;11.07;6.43;;;3.70;99.90;;;;;;5034270;28;20457;-55
2021/11/09 02:41:39;;;;;;;9.50;5.77;;;3.70;99.90;;;;;;5034023;28;20534;-54
2021/11/09 02:44:06;;;;;;;10.60;6.20;;;3.60;99.90;;;;;;5033801;28;20511;-55
2021/11/09 02:46:39;;;;;;;10.67;5.77;;;3.60;99.90;;;;;;5033561;28;20455;-54
2021/11/09 02:49:11;;;;;;;9.23;5.83;;;3.70;99.90;;;;;;5033525;28;21058;-55
2021/11/09 02:51:41;;;;;;;9.47;6.10;;;3.70;99.90;;;;;;5033667;28;20455;-55
2021/11/09 02:54:13;;;;;;;12.07;5.90;;;3.70;99.90;;;;;;5033690;28;21008;-55
2021/11/09 03:00:10;;;;;;;11.93;5.80;;;3.70;99.90;;;;;;5033114;28;20470;-55
2021/11/09 03:02:43;;;;;;;12.07;6.27;;;3.70;99.90;;;;;;5033344;28;20487;-55
2021/11/09 03:05:16;;;;;;;9.80;5.90;;;3.80;99.90;;;;;;5028859;28;20575;-55
2021/11/09 03:07:48;;;;;;;11.60;5.50;;;3.70;99.90;;;;;;5013928;28;20472;-55
2021/11/09 03:10:26;;;;;;;10.37;6.00;;;3.70;99.90;;;;;;5014723;28;20544;-55
2021/11/09 03:12:53;;;;;;;10.07;5.97;;;3.50;99.90;;;;;;5019767;28;20475;-54
2021/11/09 03:15:26;;;;;;;12.67;6.30;;;3.40;99.90;;;;;;5032078;28;20955;-55
2021/11/09 03:17:56;;;;;;;11.00;5.40;;;3.50;99.90;;;;;;5033100;28;20502;-55
2021/11/09 03:20:29;;;;;;;8.43;5.60;;;3.60;99.90;;;;;;5033059;28;20458;-55
2021/11/09 03:45:14;;;;;;;16.70;7.50;;;3.90;99.90;;;;;;5040273;28;20440;-55
2021/11/09 03:47:45;;;;;;;15.20;7.00;;;3.80;99.90;;;;;;5045740;28;20888;-56
2021/11/09 03:50:14;;;;;;;13.93;6.90;;;3.70;99.90;;;;;;5046018;28;20453;-55
2021/11/09 03:52:44;;;;;;;13.53;7.33;;;3.80;99.90;;;;;;5040558;28;20502;-54
2021/11/09 03:55:15;;;;;;;14.43;8.00;;;3.80;99.90;;;;;;5032582;28;20942;-54
2021/11/09 03:57:46;;;;;;;15.13;8.90;;;3.80;99.90;;;;;;5032679;28;20472;-55
2021/11/09 04:00:25;;;;;;;11.87;7.50;;;3.80;99.90;;;;;;5030168;28;20455;-55
2021/11/09 04:02:58;;;;;;;16.50;8.40;;;3.80;99.90;;;;;;5026271;28;20568;-54
2021/11/09 04:05:31;;;;;;;13.57;7.40;;;3.80;99.90;;;;;;5031280;28;20460;-55
2021/11/09 04:08:03;;;;;;;13.27;8.50;;;3.80;99.90;;;;;;5016348;28;20476;-55
2021/11/09 04:10:37;;;;;;;17.33;7.57;;;3.80;99.90;;;;;;5012592;28;20946;-55
2021/11/09 04:13:25;;;;;;;15.60;7.50;;;3.70;99.90;;;;;;5018010;28;20847;-55
2021/11/09 04:18:45;;;;;;;16.97;8.57;;;3.80;99.90;;;;;;5028805;28;20525;-55
2021/11/09 04:21:26;;;;;;;14.90;8.63;;;3.70;99.90;;;;;;5020407;28;20479;-55
2021/11/09 04:29:46;;;;;;;14.87;9.20;;;3.70;99.90;;;;;;5031727;28;20803;-55
2021/11/09 05:02:51;;;;;;;12.10;7.97;;;3.60;99.90;;;;;;5088559;28;21069;-53
2021/11/09 05:10:55;;;;;;;18.27;7.57;;;3.50;99.90;;;;;;5059938;28;20438;-53
2021/11/09 05:13:22;;;;;;;11.53;7.50;;;3.40;99.90;;;;;;5070015;28;20883;-53
2021/11/09 05:15:52;;;;;;;11.40;7.00;;;3.30;99.90;;;;;;5069345;28;20450;-54
2021/11/09 05:18:19;;;;;;;13.53;7.60;;;3.30;99.90;;;;;;5068531;28;20832;-54
2021/11/09 05:20:47;;;;;;;13.27;7.40;;;3.30;99.90;;;;;;5068095;28;20453;-53
2021/11/09 05:23:14;;;;;;;15.70;7.17;;;3.20;99.90;;;;;;5068219;28;20573;-54
2021/11/09 05:25:41;;;;;;;15.90;8.20;;;3.20;99.90;;;;;;5067996;28;20499;-53
2021/11/09 05:28:09;;;;;;;13.70;7.80;;;3.30;99.90;;;;;;5068412;28;20524;-53
2021/11/09 05:30:39;;;;;;;9.57;6.17;;;3.30;99.90;;;;;;5087916;28;20481;-53
2021/11/09 05:33:07;;;;;;;8.50;5.20;;;3.30;99.90;;;;;;5087546;28;20521;-54
2021/11/09 05:35:35;;;;;;;10.57;5.27;;;3.10;99.90;;;;;;5067896;28;20454;-53
2021/11/09 05:38:03;;;;;;;10.07;5.57;;;2.90;99.90;;;;;;5070841;28;20486;-53
2021/11/09 05:40:34;;;;;;;7.30;5.63;;;2.80;99.90;;;;;;5082531;28;20457;-54
2021/11/09 05:43:01;;;;;;;9.03;5.97;;;2.70;99.90;;;;;;5072013;28;20486;-53
2021/11/09 05:45:30;;;;;;;13.97;6.60;;;2.70;99.90;;;;;;5070092;28;20461;-53
2021/11/09 05:47:58;;;;;;;8.70;5.37;;;2.50;99.90;;;;;;5067740;28;20500;-53
2021/11/09 05:50:27;;;;;;;8.63;6.27;;;2.50;99.90;;;;;;5075169;28;20450;-53
2021/11/09 05:52:54;;;;;;;11.37;5.90;;;2.60;99.90;;;;;;5085077;28;20863;-53
2021/11/09 05:55:21;;;;;;;9.60;6.00;;;2.50;99.90;;;;;;5063070;28;20504;-55
2021/11/09 05:57:48;;;;;;;12.83;6.20;;;2.30;99.90;;;;;;5069135;28;20944;-54
2021/11/09 06:00:16;;;;;;;10.10;6.00;;;2.40;99.90;;;;;;5074316;28;20447;-54
2021/11/09 06:02:43;;;;;;;11.10;7.23;;;2.40;99.90;;;;;;5074244;28;20539;-53
2021/11/09 06:05:10;;;;;;;11.50;6.77;;;2.40;99.90;;;;;;5068149;28;20456;-54
2021/11/09 06:07:39;;;;;;;12.17;6.63;;;2.40;99.90;;;;;;5055477;28;20453;-54
2021/11/09 06:10:07;;;;;;;11.80;7.10;;;2.50;99.90;;;;;;5054182;28;20860;-54
2021/11/09 06:12:35;;;;;;;12.57;7.93;;;2.40;99.90;;;;;;5056901;28;20988;-54
2021/11/09 06:15:02;;;;;;;12.90;7.07;;;2.30;99.90;;;;;;5071667;28;20455;-55
2021/11/09 06:17:30;;;;;;;14.30;8.00;;;2.20;99.90;;;;;;5054094;28;20451;-53
2021/11/09 06:19:57;;;;;;;15.47;8.50;;;2.10;99.90;;;;;;5065287;28;20454;-53
2021/11/09 06:22:24;;;;;;;13.27;8.67;;;2.00;99.90;;;;;;5054435;28;20932;-54
2021/11/09 06:24:53;;;;;;;12.90;8.80;;;1.90;99.90;;;;;;5059960;28;20500;-53
2021/11/09 06:27:20;;;;;;;17.20;9.10;;;1.90;99.90;;;;;;5055617;28;20452;-53
2021/11/09 06:29:47;;;;;;;18.37;9.83;;;2.10;99.90;;;;;;5057319;28;20985;-54
2021/11/09 06:32:20;;;;;;;19.83;10.13;;;2.00;99.90;;;;;;5056431;28;21007;-53
2021/11/09 06:34:48;;;;;;;17.47;9.90;;;2.00;99.90;;;;;;5066042;28;20522;-53
2021/11/09 06:37:15;;;;;;;17.60;8.70;;;2.20;99.90;;;;;;5053789;28;20940;-54
2021/11/09 06:39:42;;;;;;;16.43;8.97;;;2.20;99.90;;;;;;5067876;28;20441;-55
2021/11/09 06:42:12;;;;;;;18.83;9.70;;;2.20;99.90;;;;;;5054039;28;20487;-53
2021/11/09 06:44:39;;;;;;;24.37;11.93;;;2.30;99.90;;;;;;5058317;28;20456;-54
2021/11/09 06:47:07;;;;;;;18.20;10.73;;;2.30;99.90;;;;;;5065740;28;20520;-54
2021/11/09 06:49:34;;;;;;;18.83;10.40;;;2.30;99.90;;;;;;5058247;28;20514;-53
2021/11/09 06:52:01;;;;;;;19.30;10.40;;;2.20;99.90;;;;;;5066670;28;20459;-54
2021/11/09 06:54:28;;;;;;;18.40;10.37;;;2.20;99.90;;;;;;5068052;28;20535;-53
2021/11/09 06:56:55;;;;;;;18.97;11.43;;;2.20;99.90;;;;;;5054358;28;20825;-53
2021/11/09 06:59:24;;;;;;;20.07;10.67;;;2.10;99.90;;;;;;5055338;28;20920;-53
2021/11/09 07:01:51;;;;;;;18.33;10.87;;;2.10;99.90;;;;;;5069901;28;20487;-54
2021/11/09 07:04:18;;;;;;;14.90;9.30;;;2.10;99.90;;;;;;5069426;28;20450;-53
2021/11/09 07:06:46;;;;;;;16.50;9.60;;;2.10;99.90;;;;;;5060068;28;20460;-53
2021/11/09 07:09:15;;;;;;;16.77;8.77;;;2.10;99.90;;;;;;5053191;28;20451;-53
2021/11/09 07:11:42;;;;;;;13.87;8.07;;;2.20;99.90;;;;;;5066754;28;20456;-54
2021/11/09 07:14:09;;;;;;;12.97;7.73;;;2.20;99.90;;;;;;5064534;28;20452;-54
2021/11/09 07:16:40;;;;;;;14.03;7.50;;;2.30;99.90;;;;;;5072867;28;20468;-53
2021/11/09 07:19:09;;;;;;;11.37;7.10;;;2.50;99.90;;;;;;5063802;28;20451;-53
2021/11/09 07:21:36;;;;;;;14.20;7.93;;;2.60;99.90;;;;;;5052778;28;20459;-53
2021/11/09 07:24:03;;;;;;;13.43;6.90;;;2.70;99.90;;;;;;5063691;22;20498;-48
2021/11/09 07:26:31;;;;;;;10.97;8.10;;;2.80;99.90;;;;;;5052082;28;20447;-48
2021/11/09 07:28:58;;;;;;;23.60;7.50;;;2.80;99.90;;;;;;5051567;28;20455;-49
2021/11/09 07:31:26;;;;;;;10.53;6.33;;;2.80;99.90;;;;;;5052220;28;20452;-48
2021/11/09 07:33:54;;;;;;;10.93;6.20;;;2.90;99.90;;;;;;5052384;28;20491;-48
2021/11/09 07:36:22;;;;;;;14.30;7.17;;;3.00;99.90;;;;;;5050016;28;20900;-48
2021/11/09 07:38:49;;;;;;;9.97;6.40;;;3.10;99.90;;;;;;5043488;28;20459;-49
2021/11/09 07:41:16;;;;;;;11.80;6.30;;;3.20;99.90;;;;;;5040502;28;20452;-49
2021/11/09 07:43:43;;;;;;;12.97;7.20;;;3.40;99.90;;;;;;5052432;28;20491;-49
2021/11/09 07:46:10;;;;;;;10.20;6.60;;;3.50;99.90;;;;;;5051996;28;20513;-49
2021/11/09 07:48:38;;;;;;;9.13;6.70;;;3.50;99.90;;;;;;5052157;28;20458;-48
2021/11/09 07:51:06;;;;;;;11.40;6.60;;;3.60;99.90;;;;;;5052001;28;20874;-49
2021/11/09 07:53:36;;;;;;;11.00;5.80;;;3.80;99.90;;;;;;5051504;28;20467;-48
2021/11/09 07:58:54;;;;;;;6.00;4.73;;;4.20;99.90;;;;;;5051794;28;20959;-49
2021/11/09 08:01:29;;;;;;;7.10;4.77;;;4.30;99.90;;;;;;5051742;28;20597;-49
2021/11/09 08:04:05;;;;;;;10.87;5.10;;;4.20;99.90;;;;;;5051980;28;21084;-48
2021/11/09 08:06:45;;;;;;;7.00;4.37;;;4.20;99.90;;;;;;5044126;28;20456;-47
2021/11/09 08:09:19;;;;;;;6.60;4.60;;;4.30;99.90;;;;;;5039862;28;20459;-47
2021/11/09 08:11:46;;;;;;;7.37;5.10;;;4.30;99.90;;;;;;5035106;28;20471;-48
2021/11/09 08:14:13;;;;;;;7.60;4.47;;;4.40;99.90;;;;;;5050011;28;20491;-48
2021/11/09 08:16:41;;;;;;;10.00;4.73;;;4.50;99.90;;;;;;5051277;28;20444;-48
2021/11/09 08:19:08;;;;;;;6.43;4.30;;;4.70;99.90;;;;;;5042024;28;20476;-47
2021/11/09 08:21:37;;;;;;;8.77;4.10;;;4.90;99.90;;;;;;5040875;28;20529;-48
2021/11/09 08:24:05;;;;;;;13.10;4.20;;;5.10;99.90;;;;;;5047748;28;20879;-49
2021/11/09 08:26:33;;;;;;;7.93;4.60;;;5.30;99.90;;;;;;5051160;28;20958;-49
2021/11/09 08:29:03;;;;;;;6.53;4.13;;;5.70;99.90;;;;;;5049655;28;20471;-49
2021/11/09 08:31:31;;;;;;;11.47;5.20;;;6.00;99.90;;;;;;5051392;28;20460;-49
2021/11/09 08:33:59;;;;;;;8.83;4.40;;;6.20;99.90;;;;;;5050546;28;20506;-49
2021/11/09 08:36:29;;;;;;;7.37;4.60;;;6.20;99.90;;;;;;5046044;28;20456;-48
2021/11/09 08:38:58;;;;;;;6.60;3.97;;;6.10;99.90;;;;;;5043546;28;20969;-49
2021/11/09 08:41:37;;;;;;;5.50;4.20;;;6.30;99.90;;;;;;5048468;28;20547;-48
2021/11/09 08:44:06;;;;;;;8.50;4.03;;;6.70;99.90;;;;;;5041374;28;20499;-49
2021/11/09 08:46:37;;;;;;;6.27;4.27;;;7.10;99.90;;;;;;5039502;28;20492;-48
2021/11/09 08:49:07;;;;;;;9.10;4.77;;;7.80;99.90;;;;;;5043576;28;20473;-49
2021/11/09 08:51:34;;;;;;;6.40;4.60;;;8.40;99.90;;;;;;5048129;28;20465;-49
2021/11/09 08:54:11;;;;;;;6.85;4.68;;;8.80;99.90;;;;;;5043754;28;20452;-49
2021/11/09 08:57:10;;;;;;;7.13;5.23;;;9.20;99.90;;;;;;5050840;28;20205;-50
2021/11/09 09:05:08;;;;;;;6.20;4.87;;;9.50;99.90;;;;;;5049568;28;20458;-50
2021/11/09 09:07:36;;;;;;;5.90;4.80;;;9.80;99.90;;;;;;5050597;28;20533;-50
2021/11/09 09:10:05;;;;;;;5.40;4.27;;;9.90;99.90;;;;;;5048453;28;20486;-49
2021/11/09 09:12:34;;;;;;;8.37;4.27;;;10.20;99.90;;;;;;5048257;28;20917;-51
2021/11/09 09:15:03;;;;;;;5.93;4.67;;;10.60;99.90;;;;;;5051020;28;20481;-50
2021/11/09 09:17:30;;;;;;;6.90;4.40;;;10.70;99.90;;;;;;5050046;28;20467;-50
2021/11/09 09:20:00;;;;;;;6.30;4.60;;;10.70;99.90;;;;;;5049942;28;20468;-50
2021/11/09 09:22:31;;;;;;;4.67;4.20;;;11.00;99.90;;;;;;5048064;28;20470;-50
2021/11/09 09:25:18;;;;;;;4.90;4.23;;;11.30;99.90;;;;;;5050023;28;20864;-51
2021/11/09 09:30:45;;;;;;;8.43;4.60;;;11.60;99.90;;;;;;5044166;28;20495;-50
2021/11/09 09:33:33;;;;;;;5.97;4.17;;;11.90;99.90;;;;;;5046671;28;20976;-51
2021/11/09 09:55:21;;;;;;;6.90;3.57;;;10.90;99.90;;;;;;5044553;28;20526;-49
2021/11/09 09:57:50;;;;;;;3.80;3.50;;;11.30;99.90;;;;;;5053022;28;20546;-49
2021/11/09 10:00:20;;;;;;;8.03;3.77;;;11.50;99.90;;;;;;5048456;28;20475;-49
2021/11/09 10:02:51;;;;;;;5.90;4.17;;;12.10;99.90;;;;;;5053136;28;20487;-49
2021/11/09 10:05:19;;;;;;;5.70;4.10;;;11.80;99.90;;;;;;5053875;28;20493;-50
2021/11/09 10:07:51;;;;;;;6.93;4.90;;;11.60;99.90;;;;;;5052889;28;20502;-50
2021/11/09 10:10:20;;;;;;;8.53;5.20;;;10.60;99.90;;;;;;5053482;28;20452;-50
2021/11/09 10:12:57;;;;;;;9.33;5.43;;;9.50;99.90;;;;;;5059049;28;20491;-50
2021/11/09 10:15:29;;;;;;;6.40;4.70;;;9.90;99.90;;;;;;5053709;28;20451;-50
2021/11/09 10:18:02;;;;;;;7.77;5.60;;;10.40;99.90;;;;;;5053750;28;20537;-50
2021/11/09 10:20:33;;;;;;;9.70;5.30;;;10.50;99.90;;;;;;5051276;28;20898;-49
2021/11/09 10:23:02;;;;;;;10.60;6.07;;;9.90;99.90;;;;;;5043201;28;20491;-50
2021/11/09 10:25:30;;;;;;;7.20;5.47;;;9.50;99.90;;;;;;5041738;28;21007;-50
2021/11/09 10:28:03;;;;;;;12.73;5.30;;;10.00;99.90;;;;;;5051564;28;20460;-50
2021/11/09 10:30:34;;;;;;;10.80;6.50;;;10.30;99.90;;;;;;5045592;28;20456;-50
2021/11/09 10:33:01;;;;;;;10.23;6.10;;;10.20;99.90;;;;;;5053401;28;20464;-50
2021/11/09 10:35:29;;;;;;;7.00;5.33;;;10.10;99.90;;;;;;5053107;28;20514;-50
2021/11/09 10:38:01;;;;;;;7.30;5.50;;;9.90;99.90;;;;;;5053083;28;20482;-50
2021/11/09 10:40:30;;;;;;;9.30;6.57;;;9.70;99.90;;;;;;5043991;28;20452;-50
2021/11/09 10:42:59;;;;;;;9.30;6.33;;;9.90;99.90;;;;;;5033361;28;20465;-50
2021/11/09 10:45:30;;;;;;;9.30;6.47;;;10.00;99.90;;;;;;5045847;28;20558;-49
2021/11/09 10:48:00;;;;;;;9.10;6.57;;;10.20;99.90;;;;;;5052663;28;20521;-49
2021/11/09 10:50:29;;;;;;;8.50;5.77;;;9.60;99.90;;;;;;5052655;28;20456;-49
2021/11/09 10:53:08;;;;;;;10.27;7.00;;;9.30;99.90;;;;;;5052437;28;21085;-49
2021/11/09 10:55:38;;;;;;;8.50;5.80;;;9.20;99.90;;;;;;5033093;28;20452;-48
2021/11/09 10:58:25;;;;;;;12.90;6.83;;;9.30;99.90;;;;;;5033067;28;20456;-48
2021/11/09 11:03:56;;;;;;;10.67;6.20;;;10.10;99.90;;;;;;5052854;28;20470;-49
2021/11/09 11:06:25;;;;;;;9.17;6.50;;;10.30;99.90;;;;;;5052904;28;20475;-49
2021/11/09 11:08:54;;;;;;;10.10;6.27;;;10.50;99.90;;;;;;5052616;28;20456;-50
2021/11/09 11:11:26;;;;;;;9.13;5.70;;;10.30;99.90;;;;;;5052515;28;20509;-49
2021/11/09 11:13:55;;;;;;;9.17;6.13;;;10.60;99.90;;;;;;5052163;28;20460;-49
2021/11/09 11:16:25;;;;;;;9.40;6.50;;;10.50;99.90;;;;;;5052173;28;20448;-49
2021/11/09 11:18:55;;;;;;;14.10;6.80;;;10.00;99.90;;;;;;5051937;28;20450;-49
2021/11/09 11:21:24;;;;;;;9.77;6.67;;;9.40;99.90;;;;;;5041802;28;20457;-49
2021/11/09 11:23:52;;;;;;;10.83;6.50;;;9.50;99.90;;;;;;5040559;28;20501;-49
2021/11/09 11:26:20;;;;;;;15.10;7.33;;;9.80;99.90;;;;;;5052691;28;20449;-49
2021/11/09 11:28:49;;;;;;;9.80;6.97;;;10.20;99.90;;;;;;5052000;28;20463;-49
2021/11/09 11:31:16;;;;;;;10.90;6.80;;;9.90;99.90;;;;;;5051822;28;20455;-49
2021/11/09 11:33:43;;;;;;;10.10;6.90;;;9.50;99.90;;;;;;5051475;28;20473;-49
2021/11/09 11:36:12;;;;;;;10.40;7.07;;;9.60;99.90;;;;;;5051912;28;20506;-49
2021/11/09 11:38:42;;;;;;;10.23;7.00;;;9.50;99.90;;;;;;5052405;28;20456;-49
2021/11/09 11:41:09;;;;;;;8.80;6.43;;;9.70;99.90;;;;;;5051231;28;20447;-49
2021/11/09 11:43:53;;;;;;;12.33;6.30;;;9.70;99.90;;;;;;5050686;28;20483;-48
2021/11/09 11:46:43;;;;;;;10.30;6.10;;;9.60;99.90;;;;;;5051605;28;20483;-49
2021/11/09 11:49:11;;;;;;;10.80;7.03;;;9.80;99.90;;;;;;5052173;28;21030;-48
2021/11/09 11:52:01;;;;;;;8.00;5.30;;;9.90;99.90;;;;;;5051865;28;20505;-48
2021/11/09 11:54:45;;;;;;;11.93;6.00;;;9.50;99.90;;;;;;5051725;28;20463;-49
2021/11/09 11:57:29;;;;;;;9.90;6.60;;;9.50;99.90;;;;;;5052479;28;21015;-49
2021/11/09 11:59:57;;;;;;;11.40;6.00;;;9.70;99.90;;;;;;5052136;28;20521;-49
2021/11/09 12:02:35;;;;;;;7.97;5.30;;;9.60;99.90;;;;;;5051513;28;20452;-49
2021/11/09 12:05:04;;;;;;;7.53;5.60;;;9.50;99.90;;;;;;5051186;28;20529;-48
2021/11/09 12:07:51;;;;;;;8.80;5.40;;;9.60;99.90;;;;;;5052043;28;20465;-49
2021/11/09 12:10:20;;;;;;;8.50;5.53;;;9.90;99.90;;;;;;5051972;28;20451;-48
2021/11/09 12:13:02;;;;;;;7.10;5.27;;;10.00;99.90;;;;;;5051649;28;20476;-48
2021/11/09 12:15:53;;;;;;;6.60;5.27;;;9.90;99.90;;;;;;5051601;28;20456;-49
2021/11/09 12:18:39;;;;;;;9.17;5.23;;;9.80;99.90;;;;;;5051619;28;20432;-49
2021/11/09 12:21:09;;;;;;;7.57;4.83;;;9.70;99.90;;;;;;5050839;28;20508;-49
2021/11/09 12:23:38;;;;;;;6.87;5.07;;;9.80;99.90;;;;;;5051025;28;20527;-49
2021/11/09 12:26:37;;;;;;;7.93;5.30;;;9.90;99.90;;;;;;5051636;28;20509;-49
2021/11/09 12:29:04;;;;;;;8.83;5.30;;;10.00;99.90;;;;;;5050942;28;20474;-50
2021/11/09 12:31:40;;;;;;;7.10;4.63;;;9.80;99.90;;;;;;5050679;28;20454;-50
2021/11/09 12:34:07;;;;;;;7.33;4.30;;;9.60;99.90;;;;;;5051214;28;20490;-50
2021/11/09 12:36:34;;;;;;;6.60;4.63;;;9.60;99.90;;;;;;5051572;28;20451;-48
2021/11/09 12:39:01;;;;;;;6.60;5.37;;;9.60;99.90;;;;;;5051424;28;20456;-49
2021/11/09 12:41:31;;;;;;;8.00;5.00;;;9.40;99.90;;;;;;5050836;28;20455;-49
2021/11/09 12:43:59;;;;;;;6.87;5.23;;;9.50;99.90;;;;;;5050621;28;20573;-48
2021/11/09 12:46:31;;;;;;;7.27;5.10;;;9.60;99.90;;;;;;5051312;28;20443;-49
2021/11/09 12:49:00;;;;;;;7.37;4.90;;;9.50;99.90;;;;;;5051234;28;20494;-48
2021/11/09 12:51:30;;;;;;;6.13;4.40;;;9.50;99.90;;;;;;5050845;28;20917;-49
2021/11/09 12:54:02;;;;;;;8.83;4.90;;;9.60;99.90;;;;;;5050838;28;20827;-49
2021/11/09 12:56:36;;;;;;;6.50;4.97;;;9.60;99.90;;;;;;5051140;28;20815;-49
2021/11/09 12:59:13;;;;;;;5.77;4.50;;;9.80;99.90;;;;;;5051188;28;20458;-49
2021/11/09 13:02:06;;;;;;;6.87;4.50;;;9.80;99.90;;;;;;5050833;28;21023;-49
2021/11/09 13:04:44;;;;;;;8.30;4.53;;;9.80;99.90;;;;;;5053551;28;20483;-49
2021/11/09 13:07:18;;;;;;;5.00;4.17;;;9.80;99.90;;;;;;5055465;28;20471;-49
2021/11/09 13:09:48;;;;;;;7.57;5.37;;;9.80;99.90;;;;;;5055309;28;20444;-50
2021/11/09 13:12:18;;;;;;;6.87;4.57;;;9.90;99.90;;;;;;5054782;28;20458;-48
2021/11/09 13:14:47;;;;;;;6.73;4.33;;;9.80;99.90;;;;;;5054647;28;20482;-50
2021/11/09 13:17:18;;;;;;;7.07;4.70;;;9.90;99.90;;;;;;5054882;28;20513;-50
2021/11/09 13:19:48;;;;;;;10.40;5.93;;;10.10;99.90;;;;;;5055263;28;20457;-49
2021/11/09 13:22:17;;;;;;;7.27;4.73;;;10.10;99.90;;;;;;5053991;28;20459;-49
2021/11/09 13:24:57;;;;;;;8.10;4.70;;;10.20;99.90;;;;;;5076807;22;20556;-52
2021/11/09 13:27:38;;;;;;;7.00;4.60;;;10.30;99.90;;;;;;5054862;28;21195;-52
2021/11/09 13:30:12;;;;;;;5.33;4.50;;;10.30;99.90;;;;;;5054597;28;20497;-52
2021/11/09 13:32:40;;;;;;;9.33;5.40;;;10.00;99.90;;;;;;5054738;28;20554;-52
2021/11/09 13:35:19;;;;;;;6.80;4.80;;;10.00;99.90;;;;;;5054221;28;20460;-52
2021/11/09 13:37:47;;;;;;;9.20;5.00;;;9.90;99.90;;;;;;5054768;28;20458;-53
2021/11/09 13:40:15;;;;;;;9.13;5.70;;;9.90;99.90;;;;;;5054234;28;20443;-52
2021/11/09 13:42:44;;;;;;;6.13;4.47;;;9.70;99.90;;;;;;5054227;28;20477;-52
2021/11/09 13:45:15;;;;;;;6.27;4.83;;;9.70;99.90;;;;;;5053897;28;20486;-52
2021/11/09 13:47:43;;;;;;;7.60;4.90;;;9.60;99.90;;;;;;5054472;28;20859;-53
2021/11/09 13:50:12;;;;;;;8.73;4.97;;;9.50;99.90;;;;;;5054234;28;20490;-52
2021/11/09 13:52:45;;;;;;;6.37;4.80;;;9.40;99.90;;;;;;5034231;28;20465;-53
2021/11/09 13:55:12;;;;;;;6.67;4.93;;;9.50;99.90;;;;;;5048946;28;20480;-52
2021/11/09 13:57:39;;;;;;;8.67;5.00;;;9.50;99.90;;;;;;5054255;28;20881;-52
2021/11/09 14:00:30;;;;;;;12.43;5.30;;;9.60;99.90;;;;;;5054225;28;20483;-53
2021/11/09 14:03:12;;;;;;;10.00;5.30;;;9.60;99.90;;;;;;5034203;28;20459;-52
2021/11/09 14:14:19;;;;;;;8.70;5.40;;;9.70;99.90;;;;;;5049400;28;20900;-52
2021/11/09 14:16:52;;;;;;;8.10;5.73;;;9.70;99.90;;;;;;5053968;28;20447;-52
2021/11/09 14:19:29;;;;;;;7.97;5.00;;;9.70;99.90;;;;;;5053964;28;20451;-53
2021/11/09 14:21:57;;;;;;;7.70;5.33;;;9.70;99.90;;;;;;5053271;28;20469;-52
2021/11/09 14:24:25;;;;;;;7.37;5.00;;;9.80;99.90;;;;;;5053195;28;20932;-52
2021/11/09 14:27:04;;;;;;;9.30;4.60;;;10.10;99.90;;;;;;5053772;28;20503;-53
2021/11/09 14:29:35;;;;;;;9.50;5.27;;;10.10;99.90;;;;;;5053827;28;20941;-52
2021/11/09 14:32:06;;;;;;;6.43;5.23;;;10.00;99.90;;;;;;5053154;28;20448;-53
2021/11/09 14:34:34;;;;;;;9.30;5.60;;;10.00;99.90;;;;;;5053585;28;20463;-52
2021/11/09 14:37:17;;;;;;;11.97;5.20;;;9.90;99.90;;;;;;5053235;28;20448;-53
2021/11/09 14:39:58;;;;;;;10.17;5.27;;;10.00;99.90;;;;;;5053729;28;20444;-53
2021/11/09 14:42:46;;;;;;;8.70;5.47;;;10.00;99.90;;;;;;5052870;28;20455;-53
2021/11/09 14:45:21;;;;;;;7.17;5.30;;;9.90;99.90;;;;;;5053320;28;20494;-52
2021/11/09 14:47:53;;;;;;;9.30;5.20;;;9.70;99.90;;;;;;5053116;28;20458;-52
2021/11/09 14:50:28;;;;;;;7.10;4.70;;;9.70;99.90;;;;;;5053236;28;20442;-55
2021/11/09 14:53:09;;;;;;;8.20;5.47;;;9.70;99.90;;;;;;5053377;28;20462;-53
2021/11/09 14:55:48;;;;;;;7.03;5.00;;;9.70;99.90;;;;;;5033524;28;20522;-53
2021/11/09 14:58:37;;;;;;;10.27;5.80;;;9.60;99.90;;;;;;5033368;28;20459;-53
2021/11/09 15:01:18;;;;;;;7.27;4.70;;;9.50;99.90;;;;;;5038902;28;20446;-53